createdAt,value
2017-05-29T00:00:53.441Z,21.91
2017-05-29T00:01:54.166Z,21.80
2017-05-29T00:02:54.894Z,21.85
2017-05-29T00:03:55.623Z,21.82
2017-05-29T00:04:56.599Z,21.83
2017-05-29T00:05:57.327Z,21.82
2017-05-29T00:06:58.054Z,21.80
2017-05-29T00:07:58.782Z,21.73
2017-05-29T00:08:59.509Z,21.73
2017-05-29T00:10:00.485Z,21.76
2017-05-29T00:11:01.214Z,21.80
2017-05-29T00:12:01.942Z,21.76
2017-05-29T00:13:02.668Z,21.79
2017-05-29T00:14:03.396Z,21.75
2017-05-29T00:15:04.424Z,21.72
2017-05-29T00:16:05.151Z,21.79
2017-05-29T00:17:05.880Z,21.73
2017-05-29T00:18:06.605Z,21.83
2017-05-29T00:19:07.334Z,21.75
2017-05-29T00:20:08.313Z,21.75
2017-05-29T00:21:09.043Z,21.73
2017-05-29T00:22:09.768Z,21.75
2017-05-29T00:23:10.495Z,21.73
2017-05-29T00:24:11.222Z,21.73
2017-05-29T00:25:12.200Z,21.73
2017-05-29T00:26:12.928Z,21.75
2017-05-29T00:27:13.655Z,21.76
2017-05-29T00:28:14.379Z,21.77
2017-05-29T00:29:15.108Z,21.76
2017-05-29T00:30:16.083Z,21.76
2017-05-29T00:31:16.808Z,21.77
2017-05-29T00:32:17.537Z,21.73
2017-05-29T00:33:18.262Z,21.76
2017-05-29T00:34:18.987Z,21.72
2017-05-29T00:35:19.965Z,21.67
2017-05-29T00:36:20.691Z,21.69
2017-05-29T00:37:21.441Z,21.66
2017-05-29T00:38:22.171Z,21.67
2017-05-29T00:39:22.894Z,21.66
2017-05-29T00:40:23.874Z,21.64
2017-05-29T00:41:24.602Z,21.67
2017-05-29T00:42:25.327Z,21.62
2017-05-29T00:43:26.053Z,21.52
2017-05-29T00:44:26.778Z,21.55
2017-05-29T00:45:27.755Z,21.57
2017-05-29T00:46:28.479Z,21.54
2017-05-29T00:47:29.209Z,21.58
2017-05-29T00:48:29.936Z,21.43
2017-05-29T00:49:30.663Z,21.42
2017-05-29T00:50:31.644Z,21.40
2017-05-29T00:51:32.369Z,21.37
2017-05-29T00:52:33.094Z,21.36
2017-05-29T00:53:33.823Z,21.37
2017-05-29T00:54:34.548Z,21.35
2017-05-29T00:55:35.525Z,21.30
2017-05-29T00:56:36.250Z,21.29
2017-05-29T00:57:36.978Z,21.29
2017-05-29T00:58:37.725Z,21.29
2017-05-29T00:59:38.451Z,21.20
2017-05-29T01:00:39.431Z,21.20
2017-05-29T01:01:40.155Z,21.11
2017-05-29T01:02:40.880Z,21.12
2017-05-29T01:03:41.607Z,21.12
2017-05-29T01:04:42.330Z,21.06
2017-05-29T01:05:43.306Z,21.12
2017-05-29T01:06:44.031Z,21.09
2017-05-29T01:07:44.757Z,21.05
2017-05-29T01:08:45.485Z,20.99
2017-05-29T01:09:46.211Z,21.05
2017-05-29T01:10:47.186Z,20.99
2017-05-29T01:11:47.911Z,21.00
2017-05-29T01:12:48.659Z,20.99
2017-05-29T01:13:49.386Z,20.90
2017-05-29T01:14:50.111Z,20.95
2017-05-29T01:15:51.084Z,20.88
2017-05-29T01:16:51.813Z,20.85
2017-05-29T01:17:52.538Z,20.81
2017-05-29T01:18:53.263Z,20.93
2017-05-29T01:19:53.990Z,20.87
2017-05-29T01:20:54.963Z,20.84
2017-05-29T01:21:55.688Z,20.84
2017-05-29T01:22:56.415Z,20.82
2017-05-29T01:23:57.140Z,20.78
2017-05-29T01:24:57.864Z,20.75
2017-05-29T01:25:58.841Z,20.78
2017-05-29T01:26:59.568Z,20.80
2017-05-29T01:28:00.292Z,20.72
2017-05-29T01:29:01.044Z,20.69
2017-05-29T01:30:01.771Z,20.65
2017-05-29T01:31:02.747Z,20.80
2017-05-29T01:32:03.472Z,20.78
2017-05-29T01:33:04.200Z,20.72
2017-05-29T01:34:04.926Z,20.66
2017-05-29T01:35:05.651Z,20.56
2017-05-29T01:36:06.652Z,20.67
2017-05-29T01:37:07.400Z,20.56
2017-05-29T01:38:08.127Z,20.66
2017-05-29T01:39:08.852Z,20.59
2017-05-29T01:40:09.580Z,20.65
2017-05-29T01:41:10.557Z,20.63
2017-05-29T01:42:11.281Z,20.58
2017-05-29T01:43:12.007Z,20.65
2017-05-29T01:44:12.731Z,20.47
2017-05-29T01:45:13.458Z,20.47
2017-05-29T01:46:14.434Z,20.52
2017-05-29T01:47:15.159Z,20.44
2017-05-29T01:48:15.885Z,20.39
2017-05-29T01:49:16.612Z,20.44
2017-05-29T01:50:17.358Z,20.50
2017-05-29T01:51:18.335Z,20.44
2017-05-29T01:52:19.059Z,20.43
2017-05-29T01:53:19.811Z,20.43
2017-05-29T01:54:20.537Z,20.47
2017-05-29T01:55:21.285Z,20.41
2017-05-29T01:56:22.263Z,20.41
2017-05-29T01:57:23.011Z,20.47
2017-05-29T01:58:23.744Z,20.39
2017-05-29T01:59:24.461Z,20.44
2017-05-29T02:00:25.187Z,20.39
2017-05-29T02:01:26.165Z,20.40
2017-05-29T02:02:26.887Z,20.39
2017-05-29T02:03:27.613Z,20.37
2017-05-29T02:04:28.338Z,20.40
2017-05-29T02:05:29.064Z,20.44
2017-05-29T02:06:30.041Z,20.37
2017-05-29T02:07:30.768Z,20.34
2017-05-29T02:08:31.496Z,20.40
2017-05-29T02:09:32.221Z,20.29
2017-05-29T02:10:32.947Z,20.32
2017-05-29T02:11:33.949Z,20.36
2017-05-29T02:12:34.672Z,20.31
2017-05-29T02:13:35.400Z,20.34
2017-05-29T02:14:36.126Z,20.41
2017-05-29T02:15:36.851Z,20.36
2017-05-29T02:16:37.826Z,20.32
2017-05-29T02:17:38.550Z,20.36
2017-05-29T02:18:39.277Z,20.39
2017-05-29T02:19:40.000Z,20.41
2017-05-29T02:20:40.750Z,20.39
2017-05-29T02:21:41.726Z,20.37
2017-05-29T02:22:42.453Z,20.31
2017-05-29T02:23:43.177Z,20.34
2017-05-29T02:24:43.906Z,20.32
2017-05-29T02:25:44.632Z,20.29
2017-05-29T02:26:45.608Z,20.34
2017-05-29T02:27:46.335Z,20.32
2017-05-29T02:28:47.060Z,20.41
2017-05-29T02:29:47.787Z,20.43
2017-05-29T02:30:48.511Z,20.36
2017-05-29T02:31:49.483Z,20.39
2017-05-29T02:32:50.211Z,20.40
2017-05-29T02:33:50.937Z,20.37
2017-05-29T02:34:51.682Z,20.31
2017-05-29T02:35:52.410Z,20.34
2017-05-29T02:36:53.385Z,20.29
2017-05-29T02:37:54.111Z,20.32
2017-05-29T02:38:54.835Z,20.32
2017-05-29T02:39:55.561Z,20.29
2017-05-29T02:40:56.287Z,20.31
2017-05-29T02:41:57.288Z,20.43
2017-05-29T02:42:58.012Z,20.34
2017-05-29T02:43:58.736Z,20.29
2017-05-29T02:44:59.461Z,20.29
2017-05-29T02:46:00.190Z,20.31
2017-05-29T02:47:01.168Z,20.31
2017-05-29T02:48:01.915Z,20.32
2017-05-29T02:49:02.637Z,20.22
2017-05-29T02:50:03.363Z,20.36
2017-05-29T02:51:04.092Z,20.22
2017-05-29T02:52:05.091Z,20.29
2017-05-29T02:53:05.818Z,20.22
2017-05-29T02:54:06.542Z,20.18
2017-05-29T02:55:07.269Z,20.21
2017-05-29T02:56:07.996Z,20.28
2017-05-29T02:57:08.970Z,20.21
2017-05-29T02:58:09.698Z,20.25
2017-05-29T02:59:10.426Z,20.26
2017-05-29T03:00:11.150Z,20.21
2017-05-29T03:01:11.879Z,20.21
2017-05-29T03:02:12.858Z,20.14
2017-05-29T03:03:13.581Z,20.21
2017-05-29T03:04:14.313Z,20.10
2017-05-29T03:05:15.037Z,20.10
2017-05-29T03:06:15.769Z,20.09
2017-05-29T03:07:16.743Z,20.09
2017-05-29T03:08:17.470Z,20.11
2017-05-29T03:09:18.218Z,20.13
2017-05-29T03:10:18.947Z,20.09
2017-05-29T03:11:19.673Z,19.99
2017-05-29T03:12:20.652Z,19.99
2017-05-29T03:13:21.376Z,20.03
2017-05-29T03:14:22.104Z,19.92
2017-05-29T03:15:22.831Z,20.00
2017-05-29T03:16:23.559Z,19.94
2017-05-29T03:17:24.539Z,20.00
2017-05-29T03:18:25.265Z,20.00
2017-05-29T03:19:25.995Z,19.92
2017-05-29T03:20:26.723Z,19.88
2017-05-29T03:21:27.451Z,19.88
2017-05-29T03:22:28.430Z,19.91
2017-05-29T03:23:29.159Z,19.84
2017-05-29T03:24:29.884Z,19.71
2017-05-29T03:25:30.613Z,19.76
2017-05-29T03:26:31.365Z,19.81
2017-05-29T03:27:32.344Z,19.81
2017-05-29T03:28:33.072Z,19.73
2017-05-29T03:29:33.801Z,19.81
2017-05-29T03:30:34.530Z,19.74
2017-05-29T03:31:35.267Z,19.77
2017-05-29T03:32:36.240Z,19.79
2017-05-29T03:33:36.969Z,19.81
2017-05-29T03:34:37.699Z,19.76
2017-05-29T03:35:38.431Z,19.77
2017-05-29T03:36:39.158Z,19.77
2017-05-29T03:37:40.138Z,19.81
2017-05-29T03:38:40.867Z,19.81
2017-05-29T03:39:41.594Z,19.81
2017-05-29T03:40:42.346Z,19.79
2017-05-29T03:41:43.075Z,19.69
2017-05-29T03:42:44.053Z,19.69
2017-05-29T03:43:44.783Z,19.63
2017-05-29T03:44:45.510Z,19.67
2017-05-29T03:45:46.241Z,19.67
2017-05-29T03:46:46.971Z,19.67
2017-05-29T03:47:47.998Z,19.66
2017-05-29T03:48:48.728Z,19.67
2017-05-29T03:49:49.456Z,19.70
2017-05-29T03:50:50.188Z,19.67
2017-05-29T03:51:50.917Z,19.71
2017-05-29T03:52:51.898Z,19.73
2017-05-29T03:53:52.628Z,19.69
2017-05-29T03:54:53.356Z,19.71
2017-05-29T03:55:54.086Z,19.67
2017-05-29T03:56:54.816Z,19.67
2017-05-29T03:57:55.799Z,19.64
2017-05-29T03:58:56.527Z,19.67
2017-05-29T03:59:57.268Z,19.63
2017-05-29T04:00:57.993Z,19.69
2017-05-29T04:01:58.723Z,19.66
2017-05-29T04:02:59.707Z,19.67
2017-05-29T04:04:00.438Z,19.69
2017-05-29T04:05:01.192Z,19.74
2017-05-29T04:06:01.925Z,19.79
2017-05-29T04:07:02.655Z,19.73
2017-05-29T04:08:03.637Z,19.88
2017-05-29T04:09:04.368Z,19.81
2017-05-29T04:10:05.097Z,19.79
2017-05-29T04:11:05.827Z,19.86
2017-05-29T04:12:06.558Z,19.85
2017-05-29T04:13:07.539Z,19.84
2017-05-29T04:14:08.293Z,19.88
2017-05-29T04:15:09.026Z,19.88
2017-05-29T04:16:09.759Z,19.85
2017-05-29T04:17:10.489Z,19.85
2017-05-29T04:18:11.473Z,19.86
2017-05-29T04:19:12.205Z,19.86
2017-05-29T04:20:12.938Z,19.89
2017-05-29T04:21:13.671Z,19.99
2017-05-29T04:22:14.399Z,19.92
2017-05-29T04:23:15.380Z,19.94
2017-05-29T04:24:16.112Z,19.94
2017-05-29T04:25:16.854Z,19.94
2017-05-29T04:26:17.574Z,19.95
2017-05-29T04:27:18.304Z,19.99
2017-05-29T04:28:19.288Z,19.96
2017-05-29T04:29:20.017Z,19.91
2017-05-29T04:30:20.757Z,19.86
2017-05-29T04:31:21.480Z,19.85
2017-05-29T04:32:22.214Z,19.89
2017-05-29T04:33:23.196Z,19.99
2017-05-29T04:34:23.927Z,19.96
2017-05-29T04:35:24.657Z,19.92
2017-05-29T04:36:25.390Z,20.02
2017-05-29T04:37:26.122Z,20.04
2017-05-29T04:38:27.153Z,20.04
2017-05-29T04:39:27.885Z,20.10
2017-05-29T04:40:28.614Z,20.04
2017-05-29T04:41:29.347Z,20.07
2017-05-29T04:42:30.080Z,20.07
2017-05-29T04:43:31.061Z,20.14
2017-05-29T04:44:31.797Z,20.10
2017-05-29T04:45:32.528Z,20.11
2017-05-29T04:46:33.259Z,20.07
2017-05-29T04:47:34.015Z,20.19
2017-05-29T04:48:34.998Z,20.24
2017-05-29T04:49:35.730Z,20.24
2017-05-29T04:50:36.467Z,20.32
2017-05-29T04:51:37.198Z,20.39
2017-05-29T04:52:37.931Z,20.41
2017-05-29T04:53:38.915Z,20.44
2017-05-29T04:54:39.646Z,20.51
2017-05-29T04:55:40.381Z,20.48
2017-05-29T04:56:41.144Z,20.55
2017-05-29T04:57:41.871Z,20.58
2017-05-29T04:58:42.857Z,20.59
2017-05-29T04:59:43.609Z,20.66
2017-05-29T05:00:44.344Z,20.60
2017-05-29T05:01:45.076Z,20.62
2017-05-29T05:02:45.807Z,20.62
2017-05-29T05:03:46.790Z,20.74
2017-05-29T05:04:47.521Z,20.62
2017-05-29T05:05:48.257Z,20.72
2017-05-29T05:06:48.989Z,20.74
2017-05-29T05:07:49.725Z,20.62
2017-05-29T05:08:50.706Z,20.59
2017-05-29T05:09:51.441Z,20.66
2017-05-29T05:10:52.173Z,20.66
2017-05-29T05:11:52.908Z,20.60
2017-05-29T05:12:53.642Z,20.70
2017-05-29T05:13:54.673Z,20.69
2017-05-29T05:14:55.413Z,20.72
2017-05-29T05:15:56.140Z,20.69
2017-05-29T05:16:56.875Z,20.77
2017-05-29T05:17:57.607Z,20.75
2017-05-29T05:18:58.590Z,20.78
2017-05-29T05:19:59.323Z,20.75
2017-05-29T05:21:00.056Z,20.81
2017-05-29T05:22:00.791Z,20.82
2017-05-29T05:23:01.538Z,20.92
2017-05-29T05:24:02.530Z,20.93
2017-05-29T05:25:03.264Z,20.97
2017-05-29T05:26:03.997Z,21.03
2017-05-29T05:27:04.733Z,21.14
2017-05-29T05:28:05.465Z,21.12
2017-05-29T05:29:06.450Z,21.27
2017-05-29T05:30:07.207Z,21.33
2017-05-29T05:31:07.945Z,21.33
2017-05-29T05:32:08.675Z,21.40
2017-05-29T05:33:09.433Z,21.46
2017-05-29T05:34:10.416Z,21.55
2017-05-29T05:35:11.150Z,21.62
2017-05-29T05:36:11.882Z,21.61
2017-05-29T05:37:12.618Z,21.73
2017-05-29T05:38:13.379Z,21.73
2017-05-29T05:39:14.363Z,21.72
2017-05-29T05:40:15.099Z,21.80
2017-05-29T05:41:15.830Z,21.82
2017-05-29T05:42:16.565Z,21.95
2017-05-29T05:43:17.301Z,21.95
2017-05-29T05:44:18.285Z,21.96
2017-05-29T05:45:19.018Z,22.00
2017-05-29T05:46:19.753Z,21.95
2017-05-29T05:47:20.489Z,21.92
2017-05-29T05:48:21.225Z,22.06
2017-05-29T05:49:22.210Z,22.13
2017-05-29T05:50:22.944Z,22.14
2017-05-29T05:51:23.678Z,22.13
2017-05-29T05:52:24.416Z,22.18
2017-05-29T05:53:25.151Z,22.20
2017-05-29T05:54:26.134Z,22.17
2017-05-29T05:55:26.869Z,22.22
2017-05-29T05:56:27.603Z,22.22
2017-05-29T05:57:28.337Z,22.25
2017-05-29T05:58:29.074Z,22.28
2017-05-29T05:59:30.067Z,22.30
2017-05-29T06:00:30.793Z,22.38
2017-05-29T06:01:31.529Z,22.38
2017-05-29T06:02:32.263Z,22.39
2017-05-29T06:03:33.000Z,22.44
2017-05-29T06:04:33.983Z,22.45
2017-05-29T06:05:34.719Z,22.60
2017-05-29T06:06:35.451Z,22.60
2017-05-29T06:07:36.187Z,22.72
2017-05-29T06:08:36.923Z,22.65
2017-05-29T06:09:37.966Z,22.78
2017-05-29T06:10:38.694Z,22.84
2017-05-29T06:11:39.430Z,22.85
2017-05-29T06:12:40.163Z,22.90
2017-05-29T06:13:40.901Z,22.96
2017-05-29T06:14:41.886Z,23.00
2017-05-29T06:15:42.622Z,22.94
2017-05-29T06:16:43.360Z,23.06
2017-05-29T06:17:44.097Z,23.08
2017-05-29T06:18:44.835Z,23.05
2017-05-29T06:19:45.820Z,23.17
2017-05-29T06:20:46.555Z,23.12
2017-05-29T06:21:47.315Z,23.05
2017-05-29T06:22:48.075Z,23.21
2017-05-29T06:23:48.817Z,23.25
2017-05-29T06:24:49.804Z,23.17
2017-05-29T06:25:50.539Z,23.27
2017-05-29T06:26:51.277Z,23.15
2017-05-29T06:27:52.036Z,23.32
2017-05-29T06:28:52.775Z,23.34
2017-05-29T06:29:53.771Z,23.44
2017-05-29T06:30:54.505Z,23.46
2017-05-29T06:31:55.242Z,23.56
2017-05-29T06:32:55.982Z,23.66
2017-05-29T06:33:56.721Z,23.61
2017-05-29T06:34:57.709Z,23.51
2017-05-29T06:35:58.448Z,23.50
2017-05-29T06:36:59.181Z,23.41
2017-05-29T06:37:59.921Z,23.46
2017-05-29T06:39:00.662Z,23.37
2017-05-29T06:40:01.723Z,23.50
2017-05-29T06:41:02.480Z,23.58
2017-05-29T06:42:03.221Z,23.59
2017-05-29T06:43:03.956Z,23.51
2017-05-29T06:44:04.696Z,23.59
2017-05-29T06:45:05.684Z,23.46
2017-05-29T06:46:06.418Z,23.58
2017-05-29T06:47:07.158Z,23.63
2017-05-29T06:48:07.895Z,23.54
2017-05-29T06:49:08.634Z,23.61
2017-05-29T06:50:09.619Z,23.56
2017-05-29T06:51:10.381Z,23.73
2017-05-29T06:52:11.118Z,23.77
2017-05-29T06:53:11.855Z,23.86
2017-05-29T06:54:12.593Z,23.96
2017-05-29T06:55:13.580Z,23.91
2017-05-29T06:56:14.317Z,23.93
2017-05-29T06:57:15.055Z,23.98
2017-05-29T06:58:15.792Z,23.96
2017-05-29T06:59:16.534Z,23.98
2017-05-29T07:00:17.524Z,24.11
2017-05-29T07:01:18.264Z,24.30
2017-05-29T07:02:19.004Z,24.29
2017-05-29T07:03:19.742Z,24.42
2017-05-29T07:04:20.484Z,24.58
2017-05-29T07:05:21.474Z,24.63
2017-05-29T07:06:22.213Z,24.77
2017-05-29T07:07:22.955Z,24.88
2017-05-29T07:08:23.695Z,24.89
2017-05-29T07:09:24.492Z,24.95
2017-05-29T07:10:25.480Z,25.10
2017-05-29T07:11:26.220Z,25.10
2017-05-29T07:12:26.959Z,25.18
2017-05-29T07:13:27.700Z,25.08
2017-05-29T07:14:28.464Z,25.26
2017-05-29T07:15:29.460Z,25.28
2017-05-29T07:16:30.197Z,25.32
2017-05-29T07:17:30.939Z,25.35
2017-05-29T07:18:31.680Z,25.38
2017-05-29T07:19:32.419Z,25.41
2017-05-29T07:20:33.411Z,25.13
2017-05-29T07:21:34.154Z,25.26
2017-05-29T07:22:34.898Z,25.43
2017-05-29T07:23:35.642Z,25.59
2017-05-29T07:24:36.383Z,25.72
2017-05-29T07:25:37.376Z,25.83
2017-05-29T07:26:38.117Z,25.99
2017-05-29T07:27:38.859Z,26.06
2017-05-29T07:28:39.603Z,26.07
2017-05-29T07:29:40.344Z,26.10
2017-05-29T07:30:41.334Z,25.99
2017-05-29T07:31:42.075Z,26.06
2017-05-29T07:32:42.817Z,26.18
2017-05-29T07:33:43.557Z,26.40
2017-05-29T07:34:44.297Z,26.55
2017-05-29T07:35:45.309Z,26.56
2017-05-29T07:36:46.049Z,26.71
2017-05-29T07:37:46.787Z,26.70
2017-05-29T07:38:47.524Z,26.89
2017-05-29T07:39:48.265Z,26.97
2017-05-29T07:40:49.255Z,27.02
2017-05-29T07:41:49.997Z,27.17
2017-05-29T07:42:50.738Z,27.39
2017-05-29T07:43:51.494Z,27.45
2017-05-29T07:44:52.219Z,27.59
2017-05-29T07:45:53.209Z,27.55
2017-05-29T07:46:53.949Z,27.74
2017-05-29T07:47:54.690Z,28.07
2017-05-29T07:48:55.432Z,28.14
2017-05-29T07:49:56.173Z,28.32
2017-05-29T07:50:57.165Z,28.12
2017-05-29T07:51:57.908Z,28.25
2017-05-29T07:52:58.673Z,28.00
2017-05-29T07:53:59.414Z,28.08
2017-05-29T07:55:00.156Z,28.27
2017-05-29T07:56:01.147Z,28.44
2017-05-29T07:57:01.892Z,28.49
2017-05-29T07:58:02.659Z,28.54
2017-05-29T07:59:03.401Z,28.57
2017-05-29T08:00:04.144Z,28.69
2017-05-29T08:01:05.138Z,28.60
2017-05-29T08:02:05.880Z,28.93
2017-05-29T08:03:06.620Z,28.86
2017-05-29T08:04:07.364Z,28.93
2017-05-29T08:05:08.108Z,29.17
2017-05-29T08:06:09.152Z,29.26
2017-05-29T08:07:09.892Z,29.38
2017-05-29T08:08:10.632Z,29.19
2017-05-29T08:09:11.377Z,29.26
2017-05-29T08:10:12.123Z,29.34
2017-05-29T08:11:13.115Z,29.44
2017-05-29T08:12:13.861Z,29.71
2017-05-29T08:13:14.607Z,29.90
2017-05-29T08:14:15.352Z,30.02
2017-05-29T08:15:16.096Z,30.13
2017-05-29T08:16:17.089Z,30.39
2017-05-29T08:17:17.833Z,30.43
2017-05-29T08:18:18.580Z,30.43
2017-05-29T08:19:19.349Z,30.23
2017-05-29T08:20:20.097Z,30.46
2017-05-29T08:21:21.093Z,30.51
2017-05-29T08:22:21.837Z,30.51
2017-05-29T08:23:22.608Z,30.44
2017-05-29T08:24:23.378Z,30.48
2017-05-29T08:25:24.126Z,30.59
2017-05-29T08:26:25.124Z,30.62
2017-05-29T08:27:25.890Z,30.62
2017-05-29T08:28:26.636Z,30.77
2017-05-29T08:29:27.383Z,30.63
2017-05-29T08:30:28.152Z,30.72
2017-05-29T08:31:29.175Z,29.95
2017-05-29T08:32:29.923Z,29.79
2017-05-29T08:33:30.670Z,29.88
2017-05-29T08:34:31.416Z,29.97
2017-05-29T08:35:32.163Z,30.13
2017-05-29T08:36:33.157Z,30.06
2017-05-29T08:37:33.907Z,30.12
2017-05-29T08:38:34.650Z,30.02
2017-05-29T08:39:35.397Z,30.28
2017-05-29T08:40:36.146Z,30.51
2017-05-29T08:41:37.142Z,30.19
2017-05-29T08:42:37.908Z,30.50
2017-05-29T08:43:38.653Z,30.40
2017-05-29T08:44:39.401Z,30.31
2017-05-29T08:45:40.148Z,30.27
2017-05-29T08:46:41.164Z,30.39
2017-05-29T08:47:41.914Z,30.59
2017-05-29T08:48:42.652Z,30.90
2017-05-29T08:49:43.398Z,30.94
2017-05-29T08:50:44.149Z,31.02
2017-05-29T08:51:45.145Z,31.03
2017-05-29T08:52:45.894Z,30.85
2017-05-29T08:53:46.639Z,31.10
2017-05-29T08:54:47.410Z,31.10
2017-05-29T08:55:48.159Z,31.14
2017-05-29T08:56:49.160Z,30.97
2017-05-29T08:57:49.909Z,31.31
2017-05-29T08:58:50.657Z,31.39
2017-05-29T08:59:51.410Z,31.49
2017-05-29T09:00:52.159Z,30.91
2017-05-29T09:01:53.159Z,29.91
2017-05-29T09:02:53.907Z,29.68
2017-05-29T09:03:54.653Z,29.57
2017-05-29T09:04:55.406Z,29.90
2017-05-29T09:05:56.155Z,29.68
2017-05-29T09:06:57.150Z,29.86
2017-05-29T09:07:57.900Z,30.28
2017-05-29T09:08:58.649Z,30.50
2017-05-29T09:09:59.395Z,30.75
2017-05-29T09:11:00.146Z,30.99
2017-05-29T09:12:01.147Z,30.80
2017-05-29T09:13:01.895Z,30.91
2017-05-29T09:14:02.646Z,30.84
2017-05-29T09:15:03.393Z,30.92
2017-05-29T09:16:04.143Z,30.96
2017-05-29T09:17:05.171Z,30.75
2017-05-29T09:18:05.920Z,30.77
2017-05-29T09:19:06.671Z,31.03
2017-05-29T09:20:07.427Z,31.21
2017-05-29T09:21:08.180Z,31.33
2017-05-29T09:22:09.185Z,31.71
2017-05-29T09:23:09.937Z,31.90
2017-05-29T09:24:10.693Z,32.03
2017-05-29T09:25:11.450Z,32.46
2017-05-29T09:26:12.208Z,32.80
2017-05-29T09:27:13.214Z,32.92
2017-05-29T09:28:13.968Z,32.83
2017-05-29T09:29:14.721Z,33.02
2017-05-29T09:30:15.475Z,33.30
2017-05-29T09:31:16.229Z,33.53
2017-05-29T09:32:17.231Z,33.40
2017-05-29T09:33:18.011Z,33.01
2017-05-29T09:34:18.763Z,32.89
2017-05-29T09:35:19.519Z,33.24
2017-05-29T09:36:20.269Z,33.31
2017-05-29T09:37:21.326Z,33.34
2017-05-29T09:38:22.078Z,33.40
2017-05-29T09:39:22.837Z,33.65
2017-05-29T09:40:23.593Z,33.57
2017-05-29T09:41:24.345Z,33.67
2017-05-29T09:42:25.351Z,33.57
2017-05-29T09:43:26.128Z,33.34
2017-05-29T09:44:26.881Z,33.36
2017-05-29T09:45:27.633Z,33.34
2017-05-29T09:46:28.387Z,33.32
2017-05-29T09:47:29.389Z,33.22
2017-05-29T09:48:30.137Z,33.15
2017-05-29T09:49:30.891Z,32.40
2017-05-29T09:50:31.642Z,32.21
2017-05-29T09:51:32.394Z,32.19
2017-05-29T09:52:33.399Z,32.29
2017-05-29T09:53:34.159Z,32.38
2017-05-29T09:54:34.915Z,32.52
2017-05-29T09:55:35.673Z,32.64
2017-05-29T09:56:36.431Z,32.56
2017-05-29T09:57:37.430Z,32.78
2017-05-29T09:58:38.181Z,32.40
2017-05-29T09:59:38.939Z,31.71
2017-05-29T10:00:39.692Z,31.93
2017-05-29T10:01:40.444Z,31.84
2017-05-29T10:02:41.505Z,31.44
2017-05-29T10:03:42.253Z,31.69
2017-05-29T10:04:43.004Z,31.66
2017-05-29T10:05:43.786Z,31.47
2017-05-29T10:06:44.540Z,31.74
2017-05-29T10:07:45.549Z,30.97
2017-05-29T10:08:46.303Z,30.81
2017-05-29T10:09:47.058Z,31.36
2017-05-29T10:10:47.809Z,31.54
2017-05-29T10:11:48.562Z,31.61
2017-05-29T10:12:49.589Z,32.07
2017-05-29T10:13:50.341Z,32.22
2017-05-29T10:14:51.092Z,31.89
2017-05-29T10:15:51.852Z,32.29
2017-05-29T10:16:52.598Z,32.64
2017-05-29T10:17:53.603Z,32.87
2017-05-29T10:18:54.355Z,32.83
2017-05-29T10:19:55.109Z,32.71
2017-05-29T10:20:55.862Z,32.45
2017-05-29T10:21:56.616Z,32.58
2017-05-29T10:22:57.622Z,32.96
2017-05-29T10:23:58.376Z,33.20
2017-05-29T10:24:59.130Z,32.82
2017-05-29T10:25:59.886Z,33.12
2017-05-29T10:27:00.639Z,33.42
2017-05-29T10:28:01.669Z,32.59
2017-05-29T10:29:02.421Z,32.18
2017-05-29T10:30:03.200Z,31.27
2017-05-29T10:31:03.951Z,30.47
2017-05-29T10:32:04.730Z,30.25
2017-05-29T10:33:05.756Z,29.76
2017-05-29T10:34:06.510Z,29.60
2017-05-29T10:35:07.260Z,29.81
2017-05-29T10:36:08.014Z,30.16
2017-05-29T10:37:08.769Z,30.63
2017-05-29T10:38:09.773Z,31.00
2017-05-29T10:39:10.525Z,31.33
2017-05-29T10:40:11.297Z,31.34
2017-05-29T10:41:12.071Z,31.22
2017-05-29T10:42:12.825Z,31.12
2017-05-29T10:43:13.828Z,30.70
2017-05-29T10:44:14.583Z,31.05
2017-05-29T10:45:15.336Z,31.22
2017-05-29T10:46:16.090Z,30.69
2017-05-29T10:47:16.841Z,30.54
2017-05-29T10:48:17.848Z,30.70
2017-05-29T10:49:18.597Z,31.09
2017-05-29T10:50:19.350Z,31.64
2017-05-29T10:51:20.102Z,31.96
2017-05-29T10:52:20.856Z,31.93
2017-05-29T10:53:21.859Z,31.90
2017-05-29T10:54:22.612Z,31.93
2017-05-29T10:55:23.368Z,32.23
2017-05-29T10:56:24.143Z,32.21
2017-05-29T10:57:24.896Z,32.48
2017-05-29T10:58:25.949Z,32.60
2017-05-29T10:59:26.703Z,32.83
2017-05-29T11:00:27.454Z,32.97
2017-05-29T11:01:28.206Z,32.31
2017-05-29T11:02:28.956Z,32.14
2017-05-29T11:03:29.957Z,32.03
2017-05-29T11:04:30.706Z,31.97
2017-05-29T11:05:31.455Z,32.14
2017-05-29T11:06:32.206Z,32.04
2017-05-29T11:07:32.953Z,31.61
2017-05-29T11:08:34.004Z,31.58
2017-05-29T11:09:34.753Z,31.61
2017-05-29T11:10:35.502Z,31.99
2017-05-29T11:11:36.258Z,31.22
2017-05-29T11:12:36.998Z,31.69
2017-05-29T11:13:38.004Z,31.97
2017-05-29T11:14:38.756Z,32.09
2017-05-29T11:15:39.509Z,32.45
2017-05-29T11:16:40.263Z,32.58
2017-05-29T11:17:41.011Z,32.71
2017-05-29T11:18:42.007Z,32.87
2017-05-29T11:19:42.756Z,33.09
2017-05-29T11:20:43.531Z,33.27
2017-05-29T11:21:44.282Z,33.62
2017-05-29T11:22:45.032Z,33.68
2017-05-29T11:23:46.032Z,34.10
2017-05-29T11:24:46.778Z,33.99
2017-05-29T11:25:47.528Z,33.89
2017-05-29T11:26:48.274Z,34.18
2017-05-29T11:27:49.023Z,33.96
2017-05-29T11:28:50.017Z,33.73
2017-05-29T11:29:50.763Z,33.27
2017-05-29T11:30:51.510Z,33.09
2017-05-29T11:31:52.258Z,32.52
2017-05-29T11:32:53.022Z,32.80
2017-05-29T11:33:54.018Z,32.68
2017-05-29T11:34:54.763Z,32.36
2017-05-29T11:35:55.506Z,32.59
2017-05-29T11:36:56.250Z,33.09
2017-05-29T11:37:56.991Z,33.32
2017-05-29T11:38:57.980Z,33.23
2017-05-29T11:39:58.723Z,33.52
2017-05-29T11:40:59.465Z,33.50
2017-05-29T11:42:00.204Z,33.07
2017-05-29T11:43:00.948Z,33.07
2017-05-29T11:44:01.964Z,32.78
2017-05-29T11:45:02.707Z,32.46
2017-05-29T11:46:03.448Z,32.51
2017-05-29T11:47:04.187Z,32.77
2017-05-29T11:48:04.929Z,32.33
2017-05-29T11:49:05.920Z,32.82
2017-05-29T11:50:06.659Z,32.77
2017-05-29T11:51:07.399Z,33.23
2017-05-29T11:52:08.138Z,32.83
2017-05-29T11:53:08.879Z,32.70
2017-05-29T11:54:09.873Z,32.78
2017-05-29T11:55:10.612Z,33.11
2017-05-29T11:56:11.353Z,33.55
2017-05-29T11:57:12.093Z,33.76
2017-05-29T11:58:12.833Z,33.74
2017-05-29T11:59:13.825Z,34.03
2017-05-29T12:00:14.566Z,34.35
2017-05-29T12:01:15.305Z,33.57
2017-05-29T12:02:16.046Z,33.49
2017-05-29T12:03:16.787Z,33.64
2017-05-29T12:04:17.778Z,33.65
2017-05-29T12:05:18.537Z,33.57
2017-05-29T12:06:19.280Z,33.67
2017-05-29T12:07:20.017Z,33.89
2017-05-29T12:08:20.781Z,33.46
2017-05-29T12:09:21.773Z,32.95
2017-05-29T12:10:22.511Z,33.01
2017-05-29T12:11:23.253Z,32.30
2017-05-29T12:12:23.992Z,32.75
2017-05-29T12:13:24.755Z,33.20
2017-05-29T12:14:25.744Z,33.71
2017-05-29T12:15:26.484Z,34.14
2017-05-29T12:16:27.245Z,33.98
2017-05-29T12:17:27.983Z,33.64
2017-05-29T12:18:28.725Z,33.87
2017-05-29T12:19:29.716Z,34.06
2017-05-29T12:20:30.454Z,34.23
2017-05-29T12:21:31.195Z,34.39
2017-05-29T12:22:31.934Z,33.07
2017-05-29T12:23:32.674Z,32.87
2017-05-29T12:24:33.663Z,32.73
2017-05-29T12:25:34.402Z,32.96
2017-05-29T12:26:35.144Z,33.12
2017-05-29T12:27:35.882Z,33.24
2017-05-29T12:28:36.625Z,33.42
2017-05-29T12:29:37.613Z,33.74
2017-05-29T12:30:38.355Z,34.01
2017-05-29T12:31:39.092Z,34.21
2017-05-29T12:32:39.831Z,34.40
2017-05-29T12:33:40.572Z,34.52
2017-05-29T12:34:41.565Z,34.71
2017-05-29T12:35:42.303Z,34.74
2017-05-29T12:36:43.043Z,34.60
2017-05-29T12:37:43.808Z,34.08
2017-05-29T12:38:44.547Z,33.86
2017-05-29T12:39:45.534Z,34.01
2017-05-29T12:40:46.273Z,33.95
2017-05-29T12:41:47.012Z,34.11
2017-05-29T12:42:47.754Z,33.98
2017-05-29T12:43:48.493Z,34.17
2017-05-29T12:44:49.481Z,34.25
2017-05-29T12:45:50.221Z,34.38
2017-05-29T12:46:50.963Z,34.58
2017-05-29T12:47:51.699Z,34.71
2017-05-29T12:48:52.442Z,34.88
2017-05-29T12:49:53.456Z,34.81
2017-05-29T12:50:54.195Z,34.05
2017-05-29T12:51:54.937Z,33.64
2017-05-29T12:52:55.700Z,33.12
2017-05-29T12:53:56.440Z,32.89
2017-05-29T12:54:57.431Z,33.24
2017-05-29T12:55:58.170Z,33.52
2017-05-29T12:56:58.912Z,33.55
2017-05-29T12:57:59.653Z,33.55
2017-05-29T12:59:00.393Z,33.80
2017-05-29T13:00:01.435Z,33.74
2017-05-29T13:01:02.174Z,33.23
2017-05-29T13:02:02.914Z,33.12
2017-05-29T13:03:03.652Z,32.82